sensor_id;sensor_type;location;lat;lon;timestamp;temperature;humidity
48744;DHT22;34538;48.836;9.174;2022-10-14T00:02:22;13.30;99.90
48744;DHT22;34538;48.836;9.174;2022-10-14T00:04:48;13.30;99.90
48744;DHT22;34538;48.836;9.174;2022-10-14T00:07:14;13.30;99.90
48744;DHT22;34538;48.836;9.174;2022-10-14T00:09:40;13.30;99.90
48744;DHT22;34538;48.836;9.174;2022-10-14T00:12:08;13.30;99.90
48744;DHT22;34538;48.836;9.174;2022-10-14T00:14:34;13.30;99.90
48744;DHT22;34538;48.836;9.174;2022-10-14T00:16:59;13.30;99.90
48744;DHT22;34538;48.836;9.174;2022-10-14T00:19:25;13.30;99.90
48744;DHT22;34538;48.836;9.174;2022-10-14T00:21:52;13.30;99.90
48744;DHT22;34538;48.836;9.174;2022-10-14T00:24:17;13.30;99.90
48744;DHT22;34538;48.836;9.174;2022-10-14T00:26:43;13.30;99.90
48744;DHT22;34538;48.836;9.174;2022-10-14T00:29:15;13.30;99.90
48744;DHT22;34538;48.836;9.174;2022-10-14T00:31:43;13.30;99.90
48744;DHT22;34538;48.836;9.174;2022-10-14T00:34:09;13.30;99.90
48744;DHT22;34538;48.836;9.174;2022-10-14T00:36:38;13.30;99.90
48744;DHT22;34538;48.836;9.174;2022-10-14T00:39:04;13.30;99.90
48744;DHT22;34538;48.836;9.174;2022-10-14T00:41:33;13.30;99.90
48744;DHT22;34538;48.836;9.174;2022-10-14T00:46:45;13.30;99.90
48744;DHT22;34538;48.836;9.174;2022-10-14T00:49:16;13.30;99.90
48744;DHT22;34538;48.836;9.174;2022-10-14T00:51:53;13.30;99.90
48744;DHT22;34538;48.836;9.174;2022-10-14T00:54:23;13.20;99.90
48744;DHT22;34538;48.836;9.174;2022-10-14T00:56:51;13.30;99.90
48744;DHT22;34538;48.836;9.174;2022-10-14T00:59:17;13.30;99.90
48744;DHT22;34538;48.836;9.174;2022-10-14T01:01:43;13.20;99.90
48744;DHT22;34538;48.836;9.174;2022-10-14T01:04:09;13.20;99.90
48744;DHT22;34538;48.836;9.174;2022-10-14T01:06:50;13.20;99.90
48744;DHT22;34538;48.836;9.174;2022-10-14T01:18:31;13.20;99.90
48744;DHT22;34538;48.836;9.174;2022-10-14T01:20:53;13.20;99.90
48744;DHT22;34538;48.836;9.174;2022-10-14T01:24:00;13.20;99.90
48744;DHT22;34538;48.836;9.174;2022-10-14T01:27:18;13.30;99.90
48744;DHT22;34538;48.836;9.174;2022-10-14T01:30:23;13.30;99.90
48744;DHT22;34538;48.836;9.174;2022-10-14T01:38:40;13.30;99.90
48744;DHT22;34538;48.836;9.174;2022-10-14T01:41:12;13.30;99.90
48744;DHT22;34538;48.836;9.174;2022-10-14T01:43:42;13.30;99.90
48744;DHT22;34538;48.836;9.174;2022-10-14T01:46:10;13.30;99.90
48744;DHT22;34538;48.836;9.174;2022-10-14T01:48:44;13.40;99.90
48744;DHT22;34538;48.836;9.174;2022-10-14T01:51:22;13.40;99.90
48744;DHT22;34538;48.836;9.174;2022-10-14T01:54:05;13.40;99.90
48744;DHT22;34538;48.836;9.174;2022-10-14T01:56:36;13.40;99.90
48744;DHT22;34538;48.836;9.174;2022-10-14T01:59:03;13.40;99.90
48744;DHT22;34538;48.836;9.174;2022-10-14T02:01:30;13.40;99.90
48744;DHT22;34538;48.836;9.174;2022-10-14T02:03:56;13.40;99.90
48744;DHT22;34538;48.836;9.174;2022-10-14T02:06:29;13.40;99.90
48744;DHT22;34538;48.836;9.174;2022-10-14T02:09:20;13.30;99.90
48744;DHT22;34538;48.836;9.174;2022-10-14T02:14:44;13.30;99.90
48744;DHT22;34538;48.836;9.174;2022-10-14T02:17:18;13.30;99.90
48744;DHT22;34538;48.836;9.174;2022-10-14T02:20:00;13.30;99.90
48744;DHT22;34538;48.836;9.174;2022-10-14T02:22:37;13.40;99.90
48744;DHT22;34538;48.836;9.174;2022-10-14T02:25:27;13.30;99.90
48744;DHT22;34538;48.836;9.174;2022-10-14T02:27:55;13.30;99.90
48744;DHT22;34538;48.836;9.174;2022-10-14T02:30:21;13.30;99.90
48744;DHT22;34538;48.836;9.174;2022-10-14T02:32:56;13.30;99.90
48744;DHT22;34538;48.836;9.174;2022-10-14T02:35:25;13.30;99.90
48744;DHT22;34538;48.836;9.174;2022-10-14T02:37:54;13.20;99.90
48744;DHT22;34538;48.836;9.174;2022-10-14T02:40:28;13.20;99.90
48744;DHT22;34538;48.836;9.174;2022-10-14T02:42:55;13.20;99.90
48744;DHT22;34538;48.836;9.174;2022-10-14T02:45:24;13.20;99.90
48744;DHT22;34538;48.836;9.174;2022-10-14T02:47:50;13.10;99.90
48744;DHT22;34538;48.836;9.174;2022-10-14T02:50:16;13.10;99.90
48744;DHT22;34538;48.836;9.174;2022-10-14T02:52:43;13.10;99.90
48744;DHT22;34538;48.836;9.174;2022-10-14T02:55:09;13.10;99.90
48744;DHT22;34538;48.836;9.174;2022-10-14T02:57:37;13.10;99.90
48744;DHT22;34538;48.836;9.174;2022-10-14T03:00:05;13.00;99.90
48744;DHT22;34538;48.836;9.174;2022-10-14T03:02:33;13.00;99.90
48744;DHT22;34538;48.836;9.174;2022-10-14T03:05:00;13.00;99.90
48744;DHT22;34538;48.836;9.174;2022-10-14T03:07:27;13.00;99.90
48744;DHT22;34538;48.836;9.174;2022-10-14T03:09:55;13.00;99.90
48744;DHT22;34538;48.836;9.174;2022-10-14T03:12:23;13.00;99.90
48744;DHT22;34538;48.836;9.174;2022-10-14T03:14:49;13.00;99.90
48744;DHT22;34538;48.836;9.174;2022-10-14T03:17:16;13.00;99.90
48744;DHT22;34538;48.836;9.174;2022-10-14T03:19:43;13.00;99.90
48744;DHT22;34538;48.836;9.174;2022-10-14T03:22:11;13.00;99.90
48744;DHT22;34538;48.836;9.174;2022-10-14T03:24:38;13.00;99.90
48744;DHT22;34538;48.836;9.174;2022-10-14T03:27:29;12.90;99.90
48744;DHT22;34538;48.836;9.174;2022-10-14T03:30:00;12.90;99.90
48744;DHT22;34538;48.836;9.174;2022-10-14T03:32:25;13.00;99.90
48744;DHT22;34538;48.836;9.174;2022-10-14T03:35:17;13.00;99.90
48744;DHT22;34538;48.836;9.174;2022-10-14T03:37:46;12.90;99.90
48744;DHT22;34538;48.836;9.174;2022-10-14T03:40:14;13.00;99.90
48744;DHT22;34538;48.836;9.174;2022-10-14T03:42:40;13.00;99.90
48744;DHT22;34538;48.836;9.174;2022-10-14T03:45:07;13.00;99.90
48744;DHT22;34538;48.836;9.174;2022-10-14T03:47:35;13.00;99.90
48744;DHT22;34538;48.836;9.174;2022-10-14T03:50:00;12.90;99.90
48744;DHT22;34538;48.836;9.174;2022-10-14T03:52:35;13.00;99.90
48744;DHT22;34538;48.836;9.174;2022-10-14T03:55:06;13.00;99.90
48744;DHT22;34538;48.836;9.174;2022-10-14T03:57:33;13.00;99.90
48744;DHT22;34538;48.836;9.174;2022-10-14T03:59:59;12.90;99.90
48744;DHT22;34538;48.836;9.174;2022-10-14T04:02:39;12.90;99.90
48744;DHT22;34538;48.836;9.174;2022-10-14T04:05:09;12.90;99.90
48744;DHT22;34538;48.836;9.174;2022-10-14T04:07:35;12.90;99.90
48744;DHT22;34538;48.836;9.174;2022-10-14T04:10:01;12.80;99.90
48744;DHT22;34538;48.836;9.174;2022-10-14T04:12:28;12.80;99.90
48744;DHT22;34538;48.836;9.174;2022-10-14T04:14:59;12.80;99.90
48744;DHT22;34538;48.836;9.174;2022-10-14T04:17:29;12.80;99.90
48744;DHT22;34538;48.836;9.174;2022-10-14T04:19:57;12.80;99.90
48744;DHT22;34538;48.836;9.174;2022-10-14T04:22:23;12.80;99.90
48744;DHT22;34538;48.836;9.174;2022-10-14T04:24:53;12.90;99.90
48744;DHT22;34538;48.836;9.174;2022-10-14T04:27:19;12.90;99.90
48744;DHT22;34538;48.836;9.174;2022-10-14T04:29:56;12.90;99.90
48744;DHT22;34538;48.836;9.174;2022-10-14T04:32:27;12.90;99.90
48744;DHT22;34538;48.836;9.174;2022-10-14T04:34:53;12.90;99.90
48744;DHT22;34538;48.836;9.174;2022-10-14T04:37:20;12.90;99.90
48744;DHT22;34538;48.836;9.174;2022-10-14T04:40:06;12.90;99.90
48744;DHT22;34538;48.836;9.174;2022-10-14T04:42:38;12.90;99.90
48744;DHT22;34538;48.836;9.174;2022-10-14T04:45:09;12.90;99.90
48744;DHT22;34538;48.836;9.174;2022-10-14T04:47:43;12.90;99.90
48744;DHT22;34538;48.836;9.174;2022-10-14T04:50:09;12.90;99.90
48744;DHT22;34538;48.836;9.174;2022-10-14T04:52:36;12.90;99.90
48744;DHT22;34538;48.836;9.174;2022-10-14T04:55:09;12.90;99.90
48744;DHT22;34538;48.836;9.174;2022-10-14T04:57:39;12.90;99.90
48744;DHT22;34538;48.836;9.174;2022-10-14T05:00:08;12.90;99.90
48744;DHT22;34538;48.836;9.174;2022-10-14T05:03:06;12.90;99.90
48744;DHT22;34538;48.836;9.174;2022-10-14T05:05:34;12.90;99.90
48744;DHT22;34538;48.836;9.174;2022-10-14T05:08:03;12.90;99.90
48744;DHT22;34538;48.836;9.174;2022-10-14T05:10:37;12.90;99.90
48744;DHT22;34538;48.836;9.174;2022-10-14T05:13:07;12.90;99.90
48744;DHT22;34538;48.836;9.174;2022-10-14T05:15:36;12.90;99.90
48744;DHT22;34538;48.836;9.174;2022-10-14T05:18:13;12.90;99.90
48744;DHT22;34538;48.836;9.174;2022-10-14T05:21:11;12.90;99.90
48744;DHT22;34538;48.836;9.174;2022-10-14T05:23:48;12.90;99.90
48744;DHT22;34538;48.836;9.174;2022-10-14T05:26:14;12.90;99.90
48744;DHT22;34538;48.836;9.174;2022-10-14T05:28:41;12.90;99.90
48744;DHT22;34538;48.836;9.174;2022-10-14T05:31:19;12.90;99.90
48744;DHT22;34538;48.836;9.174;2022-10-14T05:33:55;12.90;99.90
48744;DHT22;34538;48.836;9.174;2022-10-14T05:36:20;12.90;99.90
48744;DHT22;34538;48.836;9.174;2022-10-14T05:38:46;12.90;99.90
48744;DHT22;34538;48.836;9.174;2022-10-14T05:41:14;12.90;99.90
48744;DHT22;34538;48.836;9.174;2022-10-14T05:43:39;12.90;99.90
48744;DHT22;34538;48.836;9.174;2022-10-14T05:46:05;12.90;99.90
48744;DHT22;34538;48.836;9.174;2022-10-14T05:48:36;12.90;99.90
48744;DHT22;34538;48.836;9.174;2022-10-14T05:51:02;13.00;99.90
48744;DHT22;34538;48.836;9.174;2022-10-14T05:53:30;13.00;99.90
48744;DHT22;34538;48.836;9.174;2022-10-14T05:56:05;13.00;99.90
48744;DHT22;34538;48.836;9.174;2022-10-14T05:58:32;13.00;99.90
48744;DHT22;34538;48.836;9.174;2022-10-14T06:01:03;13.00;99.90
48744;DHT22;34538;48.836;9.174;2022-10-14T06:03:30;13.10;99.90
48744;DHT22;34538;48.836;9.174;2022-10-14T06:05:56;13.10;99.90
48744;DHT22;34538;48.836;9.174;2022-10-14T06:08:23;13.10;99.90
48744;DHT22;34538;48.836;9.174;2022-10-14T06:10:50;13.10;99.90
48744;DHT22;34538;48.836;9.174;2022-10-14T06:13:16;13.20;99.90
48744;DHT22;34538;48.836;9.174;2022-10-14T06:15:45;13.20;99.90
48744;DHT22;34538;48.836;9.174;2022-10-14T06:18:11;13.20;99.90
48744;DHT22;34538;48.836;9.174;2022-10-14T06:20:37;13.20;99.90
48744;DHT22;34538;48.836;9.174;2022-10-14T06:23:03;13.20;99.90
48744;DHT22;34538;48.836;9.174;2022-10-14T06:25:29;13.30;99.90
48744;DHT22;34538;48.836;9.174;2022-10-14T06:28:00;13.30;99.90
48744;DHT22;34538;48.836;9.174;2022-10-14T06:30:25;13.30;99.90
48744;DHT22;34538;48.836;9.174;2022-10-14T06:32:52;13.30;99.90
48744;DHT22;34538;48.836;9.174;2022-10-14T06:35:18;13.30;99.90
48744;DHT22;34538;48.836;9.174;2022-10-14T06:37:45;13.40;99.90
48744;DHT22;34538;48.836;9.174;2022-10-14T06:40:11;13.40;99.90
48744;DHT22;34538;48.836;9.174;2022-10-14T06:42:37;13.40;99.90
48744;DHT22;34538;48.836;9.174;2022-10-14T06:45:04;13.40;99.90
48744;DHT22;34538;48.836;9.174;2022-10-14T06:47:30;13.40;99.90
48744;DHT22;34538;48.836;9.174;2022-10-14T06:49:56;13.50;99.90
48744;DHT22;34538;48.836;9.174;2022-10-14T06:52:22;13.50;99.90
48744;DHT22;34538;48.836;9.174;2022-10-14T06:54:48;13.50;99.90
48744;DHT22;34538;48.836;9.174;2022-10-14T06:57:14;13.50;99.90
48744;DHT22;34538;48.836;9.174;2022-10-14T06:59:40;13.60;99.90
48744;DHT22;34538;48.836;9.174;2022-10-14T07:02:05;13.60;99.90
48744;DHT22;34538;48.836;9.174;2022-10-14T07:04:31;13.70;99.90
48744;DHT22;34538;48.836;9.174;2022-10-14T07:06:57;13.80;99.90
48744;DHT22;34538;48.836;9.174;2022-10-14T07:09:23;13.80;99.90
48744;DHT22;34538;48.836;9.174;2022-10-14T07:11:49;13.90;99.90
48744;DHT22;34538;48.836;9.174;2022-10-14T07:14:15;14.00;99.90
48744;DHT22;34538;48.836;9.174;2022-10-14T07:16:43;14.00;99.90
48744;DHT22;34538;48.836;9.174;2022-10-14T07:19:09;14.00;99.90
48744;DHT22;34538;48.836;9.174;2022-10-14T07:21:35;14.10;99.90
48744;DHT22;34538;48.836;9.174;2022-10-14T07:24:00;14.10;99.90
48744;DHT22;34538;48.836;9.174;2022-10-14T07:26:29;14.10;99.90
48744;DHT22;34538;48.836;9.174;2022-10-14T07:28:55;14.10;99.90
48744;DHT22;34538;48.836;9.174;2022-10-14T07:31:21;14.10;99.90
48744;DHT22;34538;48.836;9.174;2022-10-14T07:33:47;14.10;99.90
48744;DHT22;34538;48.836;9.174;2022-10-14T07:36:15;14.10;99.90
48744;DHT22;34538;48.836;9.174;2022-10-14T07:38:41;14.10;99.90
48744;DHT22;34538;48.836;9.174;2022-10-14T07:41:13;14.20;99.90
48744;DHT22;34538;48.836;9.174;2022-10-14T07:43:47;14.20;99.90
48744;DHT22;34538;48.836;9.174;2022-10-14T07:46:13;14.20;99.90
48744;DHT22;34538;48.836;9.174;2022-10-14T07:48:39;14.30;99.90
48744;DHT22;34538;48.836;9.174;2022-10-14T07:51:07;14.30;99.90
48744;DHT22;34538;48.836;9.174;2022-10-14T07:53:34;14.30;99.90
48744;DHT22;34538;48.836;9.174;2022-10-14T07:56:00;14.40;99.90
48744;DHT22;34538;48.836;9.174;2022-10-14T07:58:29;14.40;99.90
48744;DHT22;34538;48.836;9.174;2022-10-14T08:00:56;14.50;99.90
48744;DHT22;34538;48.836;9.174;2022-10-14T08:03:23;14.50;99.90
48744;DHT22;34538;48.836;9.174;2022-10-14T08:05:49;14.50;99.90
48744;DHT22;34538;48.836;9.174;2022-10-14T08:08:16;14.60;99.90
48744;DHT22;34538;48.836;9.174;2022-10-14T08:10:43;14.60;99.90
48744;DHT22;34538;48.836;9.174;2022-10-14T08:13:09;14.60;99.90
48744;DHT22;34538;48.836;9.174;2022-10-14T08:15:36;14.70;99.90
48744;DHT22;34538;48.836;9.174;2022-10-14T08:18:06;14.70;99.90
48744;DHT22;34538;48.836;9.174;2022-10-14T08:20:33;14.70;99.90
48744;DHT22;34538;48.836;9.174;2022-10-14T08:22:59;14.70;99.90
48744;DHT22;34538;48.836;9.174;2022-10-14T08:25:25;14.80;99.90
48744;DHT22;34538;48.836;9.174;2022-10-14T08:27:52;14.80;99.90
48744;DHT22;34538;48.836;9.174;2022-10-14T08:30:19;14.90;99.90
48744;DHT22;34538;48.836;9.174;2022-10-14T08:32:45;14.90;99.90
48744;DHT22;34538;48.836;9.174;2022-10-14T08:35:11;14.90;99.90
48744;DHT22;34538;48.836;9.174;2022-10-14T08:37:37;15.00;99.90
48744;DHT22;34538;48.836;9.174;2022-10-14T08:40:04;15.00;99.90
48744;DHT22;34538;48.836;9.174;2022-10-14T08:42:46;15.00;99.90
48744;DHT22;34538;48.836;9.174;2022-10-14T08:45:19;15.00;99.90
48744;DHT22;34538;48.836;9.174;2022-10-14T08:47:46;15.10;99.90
48744;DHT22;34538;48.836;9.174;2022-10-14T08:50:29;15.10;99.90
48744;DHT22;34538;48.836;9.174;2022-10-14T08:53:03;15.20;99.90
48744;DHT22;34538;48.836;9.174;2022-10-14T08:55:57;15.20;99.90
48744;DHT22;34538;48.836;9.174;2022-10-14T08:58:37;15.30;99.90
48744;DHT22;34538;48.836;9.174;2022-10-14T09:01:31;15.40;99.90
48744;DHT22;34538;48.836;9.174;2022-10-14T09:03:59;15.50;99.90
48744;DHT22;34538;48.836;9.174;2022-10-14T09:06:29;15.50;99.90
48744;DHT22;34538;48.836;9.174;2022-10-14T09:09:05;15.60;99.90
48744;DHT22;34538;48.836;9.174;2022-10-14T09:11:36;15.60;99.90
48744;DHT22;34538;48.836;9.174;2022-10-14T09:14:08;15.70;99.90
48744;DHT22;34538;48.836;9.174;2022-10-14T09:16:39;15.70;99.90
48744;DHT22;34538;48.836;9.174;2022-10-14T09:21:45;15.80;99.90
48744;DHT22;34538;48.836;9.174;2022-10-14T09:24:17;15.80;99.90
48744;DHT22;34538;48.836;9.174;2022-10-14T09:26:46;15.90;99.90
48744;DHT22;34538;48.836;9.174;2022-10-14T09:29:18;15.90;99.90
48744;DHT22;34538;48.836;9.174;2022-10-14T09:31:46;15.90;99.90
48744;DHT22;34538;48.836;9.174;2022-10-14T09:34:39;16.00;99.90
48744;DHT22;34538;48.836;9.174;2022-10-14T09:37:29;16.00;99.90
48744;DHT22;34538;48.836;9.174;2022-10-14T09:39:59;16.00;99.90
48744;DHT22;34538;48.836;9.174;2022-10-14T09:45:19;16.10;99.90
48744;DHT22;34538;48.836;9.174;2022-10-14T09:47:58;16.20;99.90
48744;DHT22;34538;48.836;9.174;2022-10-14T09:50:34;16.20;99.90
48744;DHT22;34538;48.836;9.174;2022-10-14T09:53:11;16.20;99.90
48744;DHT22;34538;48.836;9.174;2022-10-14T09:55:46;16.20;99.90
48744;DHT22;34538;48.836;9.174;2022-10-14T09:58:16;16.20;99.90
48744;DHT22;34538;48.836;9.174;2022-10-14T10:00:42;16.30;99.90
48744;DHT22;34538;48.836;9.174;2022-10-14T10:03:23;16.30;99.90
48744;DHT22;34538;48.836;9.174;2022-10-14T10:05:59;16.30;99.90
48744;DHT22;34538;48.836;9.174;2022-10-14T10:08:25;16.40;99.90
48744;DHT22;34538;48.836;9.174;2022-10-14T10:11:00;16.50;99.90
48744;DHT22;34538;48.836;9.174;2022-10-14T10:13:36;16.50;99.90
48744;DHT22;34538;48.836;9.174;2022-10-14T10:16:15;16.60;99.90
48744;DHT22;34538;48.836;9.174;2022-10-14T10:18:43;16.70;99.90
48744;DHT22;34538;48.836;9.174;2022-10-14T10:21:25;16.80;99.90
48744;DHT22;34538;48.836;9.174;2022-10-14T10:24:02;16.90;99.90
48744;DHT22;34538;48.836;9.174;2022-10-14T10:26:32;17.00;99.90
48744;DHT22;34538;48.836;9.174;2022-10-14T10:29:00;17.10;99.90
48744;DHT22;34538;48.836;9.174;2022-10-14T10:31:55;17.20;99.90
48744;DHT22;34538;48.836;9.174;2022-10-14T10:37:28;17.30;99.90
48744;DHT22;34538;48.836;9.174;2022-10-14T10:42:36;17.30;99.90
48744;DHT22;34538;48.836;9.174;2022-10-14T10:47:58;17.50;99.90
48744;DHT22;34538;48.836;9.174;2022-10-14T10:50:50;17.60;99.90
48744;DHT22;34538;48.836;9.174;2022-10-14T10:53:45;17.70;99.90
48744;DHT22;34538;48.836;9.174;2022-10-14T10:59:28;17.80;99.90
48744;DHT22;34538;48.836;9.174;2022-10-14T11:02:36;17.80;99.90
48744;DHT22;34538;48.836;9.174;2022-10-14T11:05:20;17.80;99.90
48744;DHT22;34538;48.836;9.174;2022-10-14T11:07:52;17.90;99.90
48744;DHT22;34538;48.836;9.174;2022-10-14T11:13:50;17.90;99.90
48744;DHT22;34538;48.836;9.174;2022-10-14T11:16:48;17.80;99.90
48744;DHT22;34538;48.836;9.174;2022-10-14T11:22:09;17.70;99.90
48744;DHT22;34538;48.836;9.174;2022-10-14T11:38:44;16.90;99.90
48744;DHT22;34538;48.836;9.174;2022-10-14T11:46:35;16.70;99.90
48744;DHT22;34538;48.836;9.174;2022-10-14T11:49:09;16.70;99.90
48744;DHT22;34538;48.836;9.174;2022-10-14T11:54:19;16.80;99.90
48744;DHT22;34538;48.836;9.174;2022-10-14T11:59:57;17.00;99.90
48744;DHT22;34538;48.836;9.174;2022-10-14T12:02:41;17.10;99.90
48744;DHT22;34538;48.836;9.174;2022-10-14T12:08:15;17.30;99.90
48744;DHT22;34538;48.836;9.174;2022-10-14T12:13:51;17.50;99.90
48744;DHT22;34538;48.836;9.174;2022-10-14T12:16:21;17.60;99.90
48744;DHT22;34538;48.836;9.174;2022-10-14T12:18:54;17.60;99.90
48744;DHT22;34538;48.836;9.174;2022-10-14T12:21:29;17.70;99.90
48744;DHT22;34538;48.836;9.174;2022-10-14T12:24:10;17.80;99.90
48744;DHT22;34538;48.836;9.174;2022-10-14T12:26:56;17.90;99.90
48744;DHT22;34538;48.836;9.174;2022-10-14T12:34:33;18.00;99.90
48744;DHT22;34538;48.836;9.174;2022-10-14T12:42:28;18.30;99.90
48744;DHT22;34538;48.836;9.174;2022-10-14T12:45:12;18.40;99.90
48744;DHT22;34538;48.836;9.174;2022-10-14T12:47:39;18.40;99.90
48744;DHT22;34538;48.836;9.174;2022-10-14T12:50:28;18.50;99.90
48744;DHT22;34538;48.836;9.174;2022-10-14T12:52:57;18.50;99.90
48744;DHT22;34538;48.836;9.174;2022-10-14T12:55:28;18.60;99.90
48744;DHT22;34538;48.836;9.174;2022-10-14T12:58:28;18.60;99.90
48744;DHT22;34538;48.836;9.174;2022-10-14T13:01:01;18.70;99.90
48744;DHT22;34538;48.836;9.174;2022-10-14T13:03:32;18.60;99.90
48744;DHT22;34538;48.836;9.174;2022-10-14T13:06:28;18.60;99.90
48744;DHT22;34538;48.836;9.174;2022-10-14T13:12:09;18.60;99.90
48744;DHT22;34538;48.836;9.174;2022-10-14T13:17:42;18.60;99.90
48744;DHT22;34538;48.836;9.174;2022-10-14T13:25:49;18.70;99.90
48744;DHT22;34538;48.836;9.174;2022-10-14T13:28:30;18.70;99.90
48744;DHT22;34538;48.836;9.174;2022-10-14T13:31:22;18.70;99.90
48744;DHT22;34538;48.836;9.174;2022-10-14T13:33:57;18.70;99.90
48744;DHT22;34538;48.836;9.174;2022-10-14T13:36:36;18.80;99.90
48744;DHT22;34538;48.836;9.174;2022-10-14T13:39:08;18.80;99.90
48744;DHT22;34538;48.836;9.174;2022-10-14T13:41:35;18.80;99.90
48744;DHT22;34538;48.836;9.174;2022-10-14T13:44:02;18.80;99.90
48744;DHT22;34538;48.836;9.174;2022-10-14T13:46:32;18.80;99.90
48744;DHT22;34538;48.836;9.174;2022-10-14T13:49:06;18.80;99.90
48744;DHT22;34538;48.836;9.174;2022-10-14T13:51:43;18.90;99.90
48744;DHT22;34538;48.836;9.174;2022-10-14T13:54:15;18.80;99.90
48744;DHT22;34538;48.836;9.174;2022-10-14T13:56:41;18.80;99.90
48744;DHT22;34538;48.836;9.174;2022-10-14T13:59:21;18.80;99.90
48744;DHT22;34538;48.836;9.174;2022-10-14T14:01:51;18.70;99.90
48744;DHT22;34538;48.836;9.174;2022-10-14T14:04:33;18.70;99.90
48744;DHT22;34538;48.836;9.174;2022-10-14T14:07:00;18.70;99.90
48744;DHT22;34538;48.836;9.174;2022-10-14T14:09:29;18.60;99.90
48744;DHT22;34538;48.836;9.174;2022-10-14T14:12:03;18.60;99.90
48744;DHT22;34538;48.836;9.174;2022-10-14T14:14:39;18.50;99.90
48744;DHT22;34538;48.836;9.174;2022-10-14T14:17:17;18.40;99.90
48744;DHT22;34538;48.836;9.174;2022-10-14T14:19:47;18.40;99.90
48744;DHT22;34538;48.836;9.174;2022-10-14T14:22:30;18.30;99.90
48744;DHT22;34538;48.836;9.174;2022-10-14T14:27:49;18.00;99.90
48744;DHT22;34538;48.836;9.174;2022-10-14T14:30:30;17.90;99.90
48744;DHT22;34538;48.836;9.174;2022-10-14T14:33:06;17.70;99.90
48744;DHT22;34538;48.836;9.174;2022-10-14T14:35:32;17.50;99.90
48744;DHT22;34538;48.836;9.174;2022-10-14T14:38:01;17.20;99.90
48744;DHT22;34538;48.836;9.174;2022-10-14T14:40:29;17.10;99.90
48744;DHT22;34538;48.836;9.174;2022-10-14T14:43:00;16.90;99.90
48744;DHT22;34538;48.836;9.174;2022-10-14T14:45:34;16.80;99.90
48744;DHT22;34538;48.836;9.174;2022-10-14T14:48:04;16.80;99.90
48744;DHT22;34538;48.836;9.174;2022-10-14T14:50:36;16.70;99.90
48744;DHT22;34538;48.836;9.174;2022-10-14T14:53:17;16.70;99.90
48744;DHT22;34538;48.836;9.174;2022-10-14T14:56:06;16.70;99.90
48744;DHT22;34538;48.836;9.174;2022-10-14T14:58:58;16.60;99.90
48744;DHT22;34538;48.836;9.174;2022-10-14T15:01:27;16.60;99.90
48744;DHT22;34538;48.836;9.174;2022-10-14T15:04:03;16.60;99.90
48744;DHT22;34538;48.836;9.174;2022-10-14T15:06:29;16.60;99.90
48744;DHT22;34538;48.836;9.174;2022-10-14T15:08:57;16.60;99.90
48744;DHT22;34538;48.836;9.174;2022-10-14T15:11:25;16.60;99.90
48744;DHT22;34538;48.836;9.174;2022-10-14T15:13:54;16.70;99.90
48744;DHT22;34538;48.836;9.174;2022-10-14T15:16:38;16.70;99.90
48744;DHT22;34538;48.836;9.174;2022-10-14T15:22:49;16.70;99.90
48744;DHT22;34538;48.836;9.174;2022-10-14T15:25:10;16.70;99.90
48744;DHT22;34538;48.836;9.174;2022-10-14T15:30:28;16.70;99.90
48744;DHT22;34538;48.836;9.174;2022-10-14T15:33:21;16.70;99.90
48744;DHT22;34538;48.836;9.174;2022-10-14T15:36:00;16.70;99.90
48744;DHT22;34538;48.836;9.174;2022-10-14T15:38:27;16.70;99.90
48744;DHT22;34538;48.836;9.174;2022-10-14T15:40:53;16.70;99.90
48744;DHT22;34538;48.836;9.174;2022-10-14T15:43:25;16.60;99.90
48744;DHT22;34538;48.836;9.174;2022-10-14T15:45:55;16.60;99.90
48744;DHT22;34538;48.836;9.174;2022-10-14T15:48:46;16.60;99.90
48744;DHT22;34538;48.836;9.174;2022-10-14T15:51:16;16.60;99.90
48744;DHT22;34538;48.836;9.174;2022-10-14T15:53:42;16.60;99.90
48744;DHT22;34538;48.836;9.174;2022-10-14T15:56:08;16.60;99.90
48744;DHT22;34538;48.836;9.174;2022-10-14T15:58:35;16.50;99.90
48744;DHT22;34538;48.836;9.174;2022-10-14T16:01:01;16.50;99.90
48744;DHT22;34538;48.836;9.174;2022-10-14T16:03:27;16.40;99.90
48744;DHT22;34538;48.836;9.174;2022-10-14T16:05:56;16.40;99.90
48744;DHT22;34538;48.836;9.174;2022-10-14T16:08:22;16.40;99.90
48744;DHT22;34538;48.836;9.174;2022-10-14T16:10:48;16.40;99.90
48744;DHT22;34538;48.836;9.174;2022-10-14T16:13:14;16.40;99.90
48744;DHT22;34538;48.836;9.174;2022-10-14T16:15:47;16.30;99.90
48744;DHT22;34538;48.836;9.174;2022-10-14T16:18:14;16.30;99.90
48744;DHT22;34538;48.836;9.174;2022-10-14T16:20:40;16.30;99.90
48744;DHT22;34538;48.836;9.174;2022-10-14T16:23:06;16.20;99.90
48744;DHT22;34538;48.836;9.174;2022-10-14T16:25:37;16.20;99.90
48744;DHT22;34538;48.836;9.174;2022-10-14T16:28:05;16.20;99.90
48744;DHT22;34538;48.836;9.174;2022-10-14T16:30:36;16.10;99.90
48744;DHT22;34538;48.836;9.174;2022-10-14T16:33:03;16.10;99.90
48744;DHT22;34538;48.836;9.174;2022-10-14T16:35:29;16.10;99.90
48744;DHT22;34538;48.836;9.174;2022-10-14T16:37:55;16.10;99.90
48744;DHT22;34538;48.836;9.174;2022-10-14T16:40:21;16.00;99.90
48744;DHT22;34538;48.836;9.174;2022-10-14T16:42:47;16.00;99.90
48744;DHT22;34538;48.836;9.174;2022-10-14T16:45:12;15.90;99.90
48744;DHT22;34538;48.836;9.174;2022-10-14T16:47:38;15.90;99.90
48744;DHT22;34538;48.836;9.174;2022-10-14T16:50:06;15.90;99.90
48744;DHT22;34538;48.836;9.174;2022-10-14T16:52:33;15.80;99.90
48744;DHT22;34538;48.836;9.174;2022-10-14T16:55:20;15.80;99.90
48744;DHT22;34538;48.836;9.174;2022-10-14T16:57:47;15.80;99.90
48744;DHT22;34538;48.836;9.174;2022-10-14T17:00:14;15.80;99.90
48744;DHT22;34538;48.836;9.174;2022-10-14T17:02:40;15.80;99.90
48744;DHT22;34538;48.836;9.174;2022-10-14T17:05:07;15.70;99.90
48744;DHT22;34538;48.836;9.174;2022-10-14T17:07:32;15.70;99.90
48744;DHT22;34538;48.836;9.174;2022-10-14T17:09:58;15.70;99.90
48744;DHT22;34538;48.836;9.174;2022-10-14T17:12:24;15.70;99.90
48744;DHT22;34538;48.836;9.174;2022-10-14T17:14:50;15.70;99.90
48744;DHT22;34538;48.836;9.174;2022-10-14T17:17:17;15.60;99.90
48744;DHT22;34538;48.836;9.174;2022-10-14T17:19:43;15.70;99.90
48744;DHT22;34538;48.836;9.174;2022-10-14T17:22:10;15.60;99.90
48744;DHT22;34538;48.836;9.174;2022-10-14T17:24:36;15.60;99.90
48744;DHT22;34538;48.836;9.174;2022-10-14T17:27:02;15.60;99.90
48744;DHT22;34538;48.836;9.174;2022-10-14T17:29:30;15.60;99.90
48744;DHT22;34538;48.836;9.174;2022-10-14T17:31:56;15.60;99.90
48744;DHT22;34538;48.836;9.174;2022-10-14T17:34:22;15.60;99.90
48744;DHT22;34538;48.836;9.174;2022-10-14T17:36:48;15.60;99.90
48744;DHT22;34538;48.836;9.174;2022-10-14T17:39:14;15.60;99.90
48744;DHT22;34538;48.836;9.174;2022-10-14T17:41:42;15.60;99.90
48744;DHT22;34538;48.836;9.174;2022-10-14T17:44:08;15.60;99.90